Time;durP1;ratioP1;P1;durP2;ratioP2;P2;SDS_P1;SDS_P2;PMS_P1;PMS_P2;Temp;Humidity;BMP_temperature;BMP_pressure;BME280_temperature;BME280_humidity;BME280_pressure;Samples;Min_cycle;Max_cycle;Signal;HPM_P1;HPM_P2
2022/07/13 00:00:04;;;;;;;12.52;11.23;;;19.90;99.90;;;;;;4994521;28;20447;-64
2022/07/13 00:02:30;;;;;;;13.77;10.88;;;20.00;99.90;;;;;;5012769;28;20138;-64
2022/07/13 00:04:56;;;;;;;13.35;10.65;;;20.00;99.90;;;;;;4979384;28;20129;-64
2022/07/13 00:07:21;;;;;;;13.07;11.63;;;20.00;99.90;;;;;;4975729;28;20039;-64
2022/07/13 00:09:47;;;;;;;12.55;11.35;;;20.10;99.90;;;;;;4975724;28;20120;-64
2022/07/13 00:12:13;;;;;;;13.70;11.18;;;20.10;99.90;;;;;;4993192;28;20281;-65
2022/07/13 00:14:39;;;;;;;12.93;11.15;;;20.10;99.90;;;;;;4959506;28;20465;-65
2022/07/13 00:17:05;;;;;;;12.80;11.27;;;20.10;99.90;;;;;;4975369;28;20141;-64
2022/07/13 00:19:31;;;;;;;15.63;11.23;;;20.10;99.90;;;;;;4959349;28;20129;-64
2022/07/13 00:21:57;;;;;;;11.77;10.45;;;20.10;99.90;;;;;;4972931;28;20125;-64
2022/07/13 00:24:23;;;;;;;11.40;10.15;;;20.20;99.90;;;;;;4959517;28;20046;-64
2022/07/13 00:26:48;;;;;;;13.95;10.90;;;20.20;99.90;;;;;;4975594;28;20057;-64
2022/07/13 00:29:14;;;;;;;11.63;10.52;;;20.20;99.90;;;;;;4975561;28;20128;-64
2022/07/13 00:31:41;;;;;;;12.00;10.63;;;20.10;99.90;;;;;;4975159;28;20409;-64
2022/07/13 00:34:07;;;;;;;13.23;11.60;;;20.20;99.90;;;;;;4992781;28;20088;-64
2022/07/13 00:36:33;;;;;;;12.63;11.13;;;20.20;99.90;;;;;;4992590;28;20041;-63
2022/07/13 00:38:59;;;;;;;12.30;9.95;;;20.20;99.90;;;;;;4992484;28;20050;-64
2022/07/13 00:41:25;;;;;;;11.68;10.23;;;20.20;99.90;;;;;;4975253;28;20125;-64
2022/07/13 00:43:51;;;;;;;11.52;10.32;;;20.20;99.90;;;;;;4992369;28;20041;-64
2022/07/13 00:46:16;;;;;;;11.43;10.00;;;20.20;99.90;;;;;;4992550;28;20100;-64
2022/07/13 00:48:43;;;;;;;13.13;9.80;;;20.20;99.90;;;;;;4958865;28;20504;-63
2022/07/13 00:51:09;;;;;;;10.82;9.80;;;20.20;99.90;;;;;;4972615;28;20052;-64
2022/07/13 00:53:38;;;;;;;14.68;9.85;;;20.20;99.90;;;;;;4992385;28;20042;-64
2022/07/13 00:56:05;;;;;;;10.95;9.82;;;20.20;99.90;;;;;;4992501;28;20038;-64
2022/07/13 00:58:32;;;;;;;10.98;9.75;;;20.20;99.90;;;;;;4974961;28;20046;-64
2022/07/13 01:00:58;;;;;;;10.88;9.82;;;20.20;99.90;;;;;;4975138;28;20149;-64
2022/07/13 01:03:24;;;;;;;10.73;9.60;;;20.20;99.90;;;;;;4974767;28;20511;-64
2022/07/13 01:05:53;;;;;;;11.23;9.35;;;20.30;99.90;;;;;;5008229;28;20096;-64
2022/07/13 01:08:20;;;;;;;12.02;9.05;;;20.20;99.90;;;;;;4994138;28;20034;-64
2022/07/13 01:10:48;;;;;;;10.73;9.27;;;20.20;99.90;;;;;;4995737;28;20574;-63
2022/07/13 01:13:16;;;;;;;10.75;9.63;;;20.20;99.90;;;;;;4998400;28;20045;-64
2022/07/13 01:15:42;;;;;;;10.88;9.77;;;20.20;99.90;;;;;;4998608;28;20392;-64
2022/07/13 01:18:12;;;;;;;11.05;9.05;;;20.20;99.90;;;;;;4998033;28;20523;-64
2022/07/13 01:20:39;;;;;;;;;;;20.30;99.90;;;;;;5013751;28;20155;-64
2022/07/13 01:23:09;;;;;;;10.77;9.50;;;20.30;99.90;;;;;;4981656;28;19917;-64
2022/07/13 01:25:35;;;;;;;10.60;9.50;;;20.30;99.90;;;;;;4997991;28;20045;-64
2022/07/13 01:28:01;;;;;;;10.80;9.73;;;20.30;99.90;;;;;;4998198;28;20038;-64
2022/07/13 01:30:27;;;;;;;11.25;9.80;;;20.30;99.90;;;;;;4998156;28;20049;-64
2022/07/13 01:32:53;;;;;;;11.25;10.02;;;20.30;99.90;;;;;;4997941;28;20042;-64
2022/07/13 01:35:22;;;;;;;10.80;9.10;;;20.30;99.90;;;;;;4997992;28;20120;-64
2022/07/13 01:37:48;;;;;;;11.13;10.02;;;20.30;99.90;;;;;;5015298;28;20492;-64
2022/07/13 01:40:14;;;;;;;11.38;10.10;;;20.20;99.90;;;;;;5015557;28;20046;-64
2022/07/13 01:42:43;;;;;;;11.07;9.85;;;20.30;99.90;;;;;;4997749;28;20112;-64
2022/07/13 01:45:10;;;;;;;10.18;9.18;;;20.20;99.90;;;;;;4984159;28;20556;-64
2022/07/13 01:47:40;;;;;;;10.95;9.27;;;20.10;99.90;;;;;;4978223;28;20042;-64
2022/07/13 01:50:07;;;;;;;10.05;8.95;;;20.20;99.90;;;;;;4976458;28;20038;-64
2022/07/13 01:52:35;;;;;;;10.57;9.13;;;20.20;99.90;;;;;;4961788;28;20085;-64
2022/07/13 01:55:04;;;;;;;9.57;8.63;;;20.20;99.90;;;;;;4978234;28;20042;-64
2022/07/13 01:57:30;;;;;;;10.35;8.65;;;20.10;99.90;;;;;;4995448;28;20491;-64
2022/07/13 02:00:00;;;;;;;10.98;8.32;;;20.10;99.90;;;;;;4978361;28;20132;-64
2022/07/13 02:02:26;;;;;;;10.30;9.10;;;20.20;99.90;;;;;;4961761;28;20133;-64
2022/07/13 02:04:52;;;;;;;11.70;8.98;;;20.20;99.90;;;;;;4977823;28;20128;-64
2022/07/13 02:07:18;;;;;;;11.20;8.93;;;20.20;99.90;;;;;;4995224;28;20046;-64
2022/07/13 02:09:44;;;;;;;10.90;9.07;;;20.20;99.90;;;;;;4995357;28;20054;-63
2022/07/13 02:12:09;;;;;;;9.95;8.95;;;20.20;99.90;;;;;;4977700;28;20107;-64
2022/07/13 02:14:35;;;;;;;10.20;9.00;;;20.20;99.90;;;;;;4977599;28;20054;-63
2022/07/13 02:17:01;;;;;;;11.32;9.20;;;20.20;99.90;;;;;;4977754;28;20049;-63
2022/07/13 02:19:27;;;;;;;11.15;8.68;;;20.20;99.90;;;;;;4961564;28;20515;-64
2022/07/13 02:21:53;;;;;;;10.98;8.40;;;20.20;99.90;;;;;;4991926;28;20133;-64
2022/07/13 02:24:18;;;;;;;9.73;8.73;;;20.10;99.90;;;;;;4995337;28;20486;-64
2022/07/13 02:26:44;;;;;;;10.02;9.00;;;20.10;99.90;;;;;;4994894;28;20455;-64
2022/07/13 02:29:10;;;;;;;12.23;9.05;;;20.10;99.90;;;;;;4977595;28;20038;-64
2022/07/13 02:31:36;;;;;;;11.35;8.70;;;20.10;99.90;;;;;;4994851;28;20496;-64
2022/07/13 02:34:02;;;;;;;10.27;9.15;;;20.10;99.90;;;;;;4994626;28;20038;-64
2022/07/13 02:36:27;;;;;;;9.65;8.55;;;20.10;99.90;;;;;;4994961;28;20104;-64
2022/07/13 02:38:53;;;;;;;13.23;9.10;;;20.10;99.90;;;;;;4977495;28;20509;-63
2022/07/13 02:41:19;;;;;;;10.23;9.15;;;20.00;99.90;;;;;;4994802;28;20508;-64
2022/07/13 02:43:45;;;;;;;9.95;8.88;;;20.00;99.90;;;;;;4977054;28;20043;-64
2022/07/13 02:46:10;;;;;;;9.95;8.10;;;20.00;99.90;;;;;;5013143;28;20073;-63
2022/07/13 02:48:36;;;;;;;10.55;8.60;;;20.00;99.90;;;;;;4996519;28;20044;-63
2022/07/13 02:51:02;;;;;;;10.52;8.52;;;20.00;99.90;;;;;;4994339;28;20097;-64
2022/07/13 02:53:28;;;;;;;11.43;8.45;;;20.00;99.90;;;;;;5014130;28;20529;-63
2022/07/13 02:55:54;;;;;;;9.77;8.18;;;19.90;99.90;;;;;;4996501;28;20496;-64
2022/07/13 02:58:20;;;;;;;10.85;8.80;;;19.90;99.90;;;;;;4996280;28;20077;-64
2022/07/13 03:00:45;;;;;;;10.55;9.38;;;19.90;99.90;;;;;;4996375;28;20046;-64
2022/07/13 03:03:11;;;;;;;9.65;8.65;;;19.90;99.90;;;;;;4996069;28;20046;-63
2022/07/13 03:05:37;;;;;;;8.93;8.02;;;19.90;99.90;;;;;;5013736;28;20061;-64
2022/07/13 03:08:03;;;;;;;14.23;8.52;;;19.90;99.90;;;;;;4996147;28;20060;-64
2022/07/13 03:10:29;;;;;;;9.45;8.50;;;19.80;99.90;;;;;;4996381;28;20056;-63
2022/07/13 03:12:55;;;;;;;13.15;8.32;;;19.80;99.90;;;;;;4996163;28;20034;-63
2022/07/13 03:15:21;;;;;;;11.25;8.15;;;19.80;99.90;;;;;;4996038;28;20042;-64
2022/07/13 03:17:47;;;;;;;8.48;7.57;;;19.80;99.90;;;;;;4995963;28;20049;-64
2022/07/13 03:20:13;;;;;;;8.90;7.40;;;19.80;99.90;;;;;;5011342;28;20053;-64
2022/07/13 03:22:39;;;;;;;9.50;7.88;;;19.70;99.90;;;;;;4995884;28;20042;-64
2022/07/13 03:25:06;;;;;;;8.68;7.70;;;19.80;99.90;;;;;;4996066;28;20045;-64
2022/07/13 03:27:32;;;;;;;8.48;7.43;;;19.80;99.90;;;;;;4995849;28;20041;-64
2022/07/13 03:29:57;;;;;;;9.05;7.50;;;19.70;99.90;;;;;;4979803;28;20034;-63
2022/07/13 03:32:23;;;;;;;8.98;7.15;;;19.70;99.90;;;;;;4996020;28;20425;-64
2022/07/13 03:34:49;;;;;;;7.78;6.97;;;19.70;99.90;;;;;;5012131;28;20052;-63
2022/07/13 03:37:15;;;;;;;8.43;7.38;;;19.60;99.90;;;;;;5013395;28;20061;-63
2022/07/13 03:39:41;;;;;;;9.13;8.02;;;19.60;99.90;;;;;;4995566;28;20408;-64
2022/07/13 03:42:07;;;;;;;9.65;7.85;;;19.50;99.90;;;;;;5013063;28;20046;-64
2022/07/13 03:44:32;;;;;;;9.60;8.60;;;19.50;99.90;;;;;;4987020;28;20046;-64
2022/07/13 03:47:00;;;;;;;12.30;9.15;;;19.50;99.90;;;;;;4960384;28;20084;-64
2022/07/13 03:49:26;;;;;;;9.88;8.05;;;19.50;99.90;;;;;;4993350;28;20504;-64
2022/07/13 03:51:51;;;;;;;8.52;7.63;;;19.40;99.90;;;;;;4957588;28;20045;-64
2022/07/13 03:54:17;;;;;;;9.55;8.55;;;19.40;99.90;;;;;;4985348;28;20117;-64
2022/07/13 03:56:43;;;;;;;11.00;9.18;;;19.40;99.90;;;;;;4993359;28;20038;-63
2022/07/13 03:59:09;;;;;;;11.07;9.98;;;19.40;99.90;;;;;;4993138;28;20038;-64
2022/07/13 04:01:35;;;;;;;13.13;9.35;;;19.30;99.90;;;;;;4975975;28;20065;-64
2022/07/13 04:04:03;;;;;;;11.32;9.40;;;19.30;99.90;;;;;;4975678;28;20505;-64
2022/07/13 04:06:29;;;;;;;11.80;9.57;;;19.30;99.90;;;;;;4975676;28;20046;-64
2022/07/13 04:08:56;;;;;;;14.45;10.35;;;19.30;99.90;;;;;;4959635;28;20038;-64
2022/07/13 04:11:22;;;;;;;12.23;10.98;;;19.30;99.90;;;;;;4993037;28;20496;-64
2022/07/13 04:13:47;;;;;;;14.70;12.05;;;19.30;99.90;;;;;;4975380;28;20121;-64
2022/07/13 04:16:13;;;;;;;14.77;11.68;;;19.30;99.90;;;;;;4975779;28;20046;-64
2022/07/13 04:18:39;;;;;;;13.80;11.52;;;19.30;99.90;;;;;;4993030;28;20505;-64
2022/07/13 04:21:07;;;;;;;13.35;11.80;;;19.30;99.90;;;;;;4956993;28;20057;-64
2022/07/13 04:23:33;;;;;;;12.75;11.40;;;19.40;99.90;;;;;;4975254;28;20092;-64
2022/07/13 04:25:59;;;;;;;12.10;9.93;;;19.40;99.90;;;;;;4993158;28;20121;-64
2022/07/13 04:28:25;;;;;;;12.13;10.65;;;19.40;99.90;;;;;;4975244;28;20089;-64
2022/07/13 04:30:51;;;;;;;13.10;10.55;;;19.40;99.90;;;;;;4992902;28;20057;-63
2022/07/13 04:33:17;;;;;;;14.88;11.13;;;19.40;99.90;;;;;;4992676;28;20492;-64
2022/07/13 04:35:42;;;;;;;13.70;10.95;;;19.50;99.90;;;;;;4975164;28;20046;-64
2022/07/13 04:38:08;;;;;;;13.18;10.75;;;19.50;99.90;;;;;;4959087;28;20042;-63
2022/07/13 04:40:34;;;;;;;13.10;9.40;;;19.60;99.90;;;;;;4992438;28;20050;-64
2022/07/13 04:43:00;;;;;;;11.43;8.70;;;19.60;99.90;;;;;;4959032;28;20054;-64
2022/07/13 04:45:26;;;;;;;12.57;9.45;;;19.70;99.90;;;;;;4990285;28;20037;-63
2022/07/13 04:47:51;;;;;;;9.70;8.70;;;19.70;99.90;;;;;;4994681;28;20038;-63
2022/07/13 04:50:17;;;;;;;11.32;9.23;;;19.80;99.90;;;;;;4991809;28;20046;-64
2022/07/13 04:52:43;;;;;;;10.70;8.80;;;19.80;99.90;;;;;;5012194;28;20049;-64
2022/07/13 04:55:09;;;;;;;10.60;9.43;;;19.90;99.90;;;;;;5012254;28;20128;-63
2022/07/13 04:57:36;;;;;;;12.25;8.65;;;19.90;99.90;;;;;;4978173;28;20046;-63
2022/07/13 05:00:06;;;;;;;8.73;7.82;;;20.00;99.90;;;;;;5011842;28;20046;-64
2022/07/13 05:02:32;;;;;;;10.13;8.55;;;20.00;99.90;;;;;;4978145;28;20042;-64
2022/07/13 05:04:58;;;;;;;13.23;9.20;;;20.10;99.90;;;;;;4994198;28;20066;-64
2022/07/13 05:07:24;;;;;;;13.27;9.45;;;20.10;99.90;;;;;;4994386;28;20049;-64
2022/07/13 05:09:50;;;;;;;10.18;7.95;;;20.10;99.90;;;;;;4994081;28;20046;-63
2022/07/13 05:12:16;;;;;;;11.05;7.90;;;20.20;99.90;;;;;;4978064;28;20045;-64
2022/07/13 05:14:42;;;;;;;9.98;8.52;;;20.20;99.90;;;;;;5012020;28;20042;-64
2022/07/13 05:17:07;;;;;;;14.63;10.50;;;20.20;99.90;;;;;;5011985;28;20048;-63
2022/07/13 05:19:33;;;;;;;11.00;9.45;;;20.30;99.90;;;;;;4978160;28;20042;-64
2022/07/13 05:21:59;;;;;;;12.27;9.95;;;20.40;99.90;;;;;;4991658;28;20523;-64
2022/07/13 05:24:25;;;;;;;13.90;9.65;;;20.50;99.90;;;;;;4993982;28;20114;-64
2022/07/13 05:26:51;;;;;;;12.07;8.75;;;20.50;99.90;;;;;;4993984;28;20041;-64
2022/07/13 05:29:16;;;;;;;10.30;9.20;;;20.60;99.90;;;;;;4994350;28;20140;-64
2022/07/13 05:31:42;;;;;;;12.07;9.57;;;20.60;99.90;;;;;;5011680;28;20173;-64
2022/07/13 05:34:08;;;;;;;12.82;10.80;;;20.70;99.90;;;;;;4994266;28;20038;-64
2022/07/13 05:36:34;;;;;;;13.32;10.10;;;20.70;99.90;;;;;;5011905;28;20524;-64
2022/07/13 05:39:00;;;;;;;12.60;10.52;;;20.80;99.90;;;;;;5011683;28;20034;-63
2022/07/13 05:41:27;;;;;;;16.63;10.98;;;20.90;99.90;;;;;;5011492;28;20427;-64
2022/07/13 05:43:52;;;;;;;13.80;10.93;;;20.90;99.90;;;;;;4994105;28;20069;-64
2022/07/13 05:46:18;;;;;;;16.52;10.52;;;21.00;99.90;;;;;;5011478;28;20131;-64
2022/07/13 05:48:44;;;;;;;12.30;10.68;;;21.10;99.90;;;;;;4994079;28;20077;-64
2022/07/13 05:51:11;;;;;;;13.38;10.65;;;21.20;99.90;;;;;;4991718;28;20088;-64
2022/07/13 05:53:37;;;;;;;12.90;11.10;;;21.30;99.90;;;;;;4994038;28;20049;-64
2022/07/13 05:56:03;;;;;;;13.40;10.48;;;21.30;99.90;;;;;;5011327;28;20042;-64
2022/07/13 05:58:28;;;;;;;12.45;11.15;;;21.30;99.90;;;;;;4996299;28;20041;-64
2022/07/13 06:00:54;;;;;;;14.07;11.10;;;21.40;99.90;;;;;;4981213;28;20084;-64
2022/07/13 06:03:20;;;;;;;13.05;10.45;;;21.50;99.90;;;;;;4997317;28;20044;-64
2022/07/13 06:05:46;;;;;;;11.90;10.60;;;21.60;99.90;;;;;;4997478;28;20041;-64
2022/07/13 06:08:12;;;;;;;13.40;10.70;;;21.80;99.90;;;;;;4997491;28;20447;-64
2022/07/13 06:10:37;;;;;;;12.45;10.48;;;21.90;99.90;;;;;;5014793;28;20464;-64
2022/07/13 06:13:03;;;;;;;15.70;10.68;;;22.10;99.90;;;;;;4981060;28;20053;-64
2022/07/13 06:15:29;;;;;;;14.88;10.88;;;22.20;99.90;;;;;;4994615;28;20045;-64
2022/07/13 06:17:56;;;;;;;16.08;10.82;;;22.40;99.90;;;;;;4981129;28;20045;-64
2022/07/13 06:20:22;;;;;;;12.10;10.13;;;22.40;99.90;;;;;;4994885;28;20516;-64
2022/07/13 06:23:09;;;;;;;14.15;11.15;;;22.60;99.90;;;;;;5014624;28;20081;-64
2022/07/13 06:25:33;;;;;;;13.63;10.95;;;22.80;99.90;;;;;;4997016;28;20525;-64
2022/07/13 06:27:59;;;;;;;11.68;9.60;;;23.00;99.90;;;;;;4996961;28;20081;-64
2022/07/13 06:30:25;;;;;;;11.88;9.85;;;23.00;99.90;;;;;;4997153;28;20046;-64
2022/07/13 06:32:51;;;;;;;12.23;10.07;;;23.00;99.90;;;;;;4980730;28;20049;-64
2022/07/13 06:35:16;;;;;;;15.88;10.20;;;23.00;99.90;;;;;;5014444;28;20038;-64
2022/07/13 06:37:42;;;;;;;10.55;9.20;;;23.00;99.90;;;;;;5014442;28;20030;-63
2022/07/13 06:40:09;;;;;;;12.23;9.80;;;22.90;99.90;;;;;;4996596;28;20471;-64
2022/07/13 06:42:35;;;;;;;15.25;10.45;;;22.80;99.90;;;;;;4996748;28;20046;-64
2022/07/13 06:45:00;;;;;;;10.45;9.35;;;22.70;99.90;;;;;;4996305;28;20108;-64
2022/07/13 06:47:26;;;;;;;11.00;9.68;;;22.50;99.90;;;;;;4996516;28;20044;-64
2022/07/13 06:49:52;;;;;;;11.68;9.20;;;22.50;99.90;;;;;;5014169;28;20073;-64
2022/07/13 06:52:18;;;;;;;10.75;9.65;;;22.40;99.90;;;;;;4994470;28;20077;-64
2022/07/13 06:54:44;;;;;;;13.60;10.05;;;22.40;99.90;;;;;;4996479;28;20085;-64
2022/07/13 06:57:09;;;;;;;12.13;9.38;;;22.30;99.90;;;;;;4996385;28;20049;-64
2022/07/13 06:59:35;;;;;;;14.32;8.70;;;22.30;99.90;;;;;;4996226;28;20045;-64
2022/07/13 07:02:01;;;;;;;10.50;9.40;;;22.30;99.90;;;;;;4996104;28;20045;-64
2022/07/13 07:04:29;;;;;;;12.88;9.88;;;22.30;99.90;;;;;;4986552;28;20130;-63
2022/07/13 07:06:56;;;;;;;10.75;9.40;;;22.50;99.90;;;;;;4976748;28;20046;-64
2022/07/13 07:09:22;;;;;;;13.52;10.23;;;22.60;99.90;;;;;;4993799;28;20051;-64
2022/07/13 07:11:48;;;;;;;12.48;9.65;;;22.90;99.90;;;;;;4976619;28;20034;-63
2022/07/13 07:14:14;;;;;;;11.20;9.05;;;23.20;99.90;;;;;;4994120;28;20154;-64
2022/07/13 07:16:42;;;;;;;14.60;9.50;;;23.30;99.90;;;;;;4976524;28;20117;-63
2022/07/13 07:19:08;;;;;;;10.27;9.13;;;23.40;99.90;;;;;;4976597;28;20046;-64
2022/07/13 07:21:34;;;;;;;11.82;9.10;;;23.50;99.90;;;;;;4991395;28;20186;-64
2022/07/13 07:24:00;;;;;;;12.70;9.07;;;23.80;99.90;;;;;;4976486;28;20121;-63
2022/07/13 07:26:26;;;;;;;13.35;8.45;;;24.00;99.90;;;;;;4976586;28;20422;-64
2022/07/13 07:28:51;;;;;;;11.98;9.60;;;24.10;99.90;;;;;;4976331;28;20488;-64
2022/07/13 07:31:17;;;;;;;12.20;8.77;;;24.30;99.90;;;;;;4976490;28;20125;-64
2022/07/13 07:33:43;;;;;;;13.18;9.07;;;24.40;99.90;;;;;;4976509;28;20526;-64
2022/07/13 07:36:09;;;;;;;11.68;8.85;;;24.60;99.90;;;;;;4976387;28;20416;-64
2022/07/13 07:38:35;;;;;;;11.65;8.38;;;24.90;99.90;;;;;;4993951;28;20042;-64
2022/07/13 07:41:01;;;;;;;9.93;8.57;;;25.20;99.90;;;;;;4993807;28;20049;-64
2022/07/13 07:43:27;;;;;;;11.40;8.82;;;25.40;99.90;;;;;;4976120;28;20533;-64
2022/07/13 07:45:53;;;;;;;16.05;7.65;;;25.60;99.90;;;;;;4975868;28;20038;-64
2022/07/13 07:48:19;;;;;;;8.98;7.22;;;25.90;99.90;;;;;;4976076;28;20134;-64
2022/07/13 07:50:46;;;;;;;8.95;6.32;;;26.00;99.90;;;;;;4991008;28;20468;-64
2022/07/13 07:53:12;;;;;;;9.38;6.78;;;26.10;99.90;;;;;;4959910;28;20046;-64
2022/07/13 07:55:37;;;;;;;8.65;7.05;;;26.20;99.90;;;;;;4993527;28;20093;-65
2022/07/13 07:58:03;;;;;;;9.05;7.03;;;26.30;99.90;;;;;;4958049;28;20428;-64
2022/07/13 08:00:30;;;;;;;8.52;7.22;;;26.40;99.90;;;;;;4993402;28;20133;-65
2022/07/13 08:03:02;;;;;;;7.18;6.35;;;26.50;99.90;;;;;;4975821;28;20046;-64
2022/07/13 08:05:29;;;;;;;7.03;6.15;;;26.60;99.90;;;;;;4993275;28;20050;-64
2022/07/13 08:07:56;;;;;;;7.03;5.95;;;26.80;99.90;;;;;;4995365;28;20042;-64
2022/07/13 08:10:21;;;;;;;6.05;5.45;;;27.00;99.90;;;;;;4995185;28;20040;-65
2022/07/13 08:12:47;;;;;;;7.93;5.18;;;27.00;99.90;;;;;;4995014;28;20042;-64
2022/07/13 08:15:13;;;;;;;7.32;4.95;;;27.10;99.90;;;;;;4995184;28;20053;-64
2022/07/13 08:17:39;;;;;;;6.63;5.18;;;27.00;99.90;;;;;;4994916;28;20049;-64
2022/07/13 08:20:07;;;;;;;9.23;5.80;;;27.00;99.90;;;;;;5011798;28;20053;-64
2022/07/13 08:22:33;;;;;;;8.82;5.18;;;27.20;99.90;;;;;;5010411;28;20038;-64
2022/07/13 08:24:58;;;;;;;6.07;4.47;;;27.40;99.90;;;;;;4978887;28;20392;-64
2022/07/13 08:27:26;;;;;;;6.65;3.90;;;27.50;99.90;;;;;;4978530;28;20053;-63
2022/07/13 08:29:51;;;;;;;6.20;4.28;;;27.70;99.90;;;;;;4994799;28;20042;-64
2022/07/13 08:32:17;;;;;;;7.82;4.82;;;27.80;99.90;;;;;;4994683;28;20124;-64
2022/07/13 08:40:13;;;;;;;4.65;3.03;;;28.00;99.90;;;;;;4994660;28;20046;-65
2022/07/13 08:42:39;;;;;;;9.07;3.03;;;28.10;99.90;;;;;;4994486;28;20046;-64
2022/07/13 08:45:05;;;;;;;5.68;3.03;;;28.10;99.90;;;;;;4994240;28;20097;-64
2022/07/13 08:47:31;;;;;;;6.88;3.70;;;28.40;99.90;;;;;;4994665;28;20472;-64
2022/07/13 08:50:06;;;;;;;6.32;3.40;;;28.70;99.90;;;;;;4994619;28;20121;-64
2022/07/13 08:52:37;;;;;;;3.42;2.83;;;29.10;99.90;;;;;;4975845;28;20500;-64
2022/07/13 08:55:05;;;;;;;3.05;2.55;;;29.10;99.90;;;;;;4994578;28;20042;-64
2022/07/13 08:57:36;;;;;;;4.70;2.30;;;29.00;99.90;;;;;;5012836;28;20041;-64
2022/07/13 09:00:07;;;;;;;4.82;2.17;;;28.90;99.90;;;;;;4995309;28;20045;-64
2022/07/13 09:02:33;;;;;;;2.65;2.10;;;28.90;99.90;;;;;;5012941;28;20038;-64
2022/07/13 09:05:04;;;;;;;3.58;1.70;;;28.90;99.90;;;;;;5012660;28;20134;-64
2022/07/13 09:07:31;;;;;;;3.55;2.00;;;29.00;99.90;;;;;;4994546;28;20050;-64
2022/07/13 09:09:57;;;;;;;5.20;1.65;;;29.00;99.30;;;;;;4978139;28;20042;-64
2022/07/13 09:12:24;;;;;;;2.05;1.50;;;29.10;99.10;;;;;;4994474;28;20042;-64
2022/07/13 09:14:54;;;;;;;2.33;1.27;;;29.10;99.90;;;;;;5012133;28;20042;-64
2022/07/13 09:17:29;;;;;;;3.83;1.65;;;29.40;97.90;;;;;;4994189;28;20042;-64
2022/07/13 09:19:56;;;;;;;3.70;2.15;;;29.50;97.00;;;;;;4994358;28;20099;-64
2022/07/13 09:22:22;;;;;;;2.25;1.20;;;29.50;95.80;;;;;;4992264;28;20034;-64
2022/07/13 09:24:50;;;;;;;3.97;2.03;;;29.30;93.70;;;;;;4995238;28;20060;-64
2022/07/13 09:27:17;;;;;;;2.17;1.50;;;29.20;94.50;;;;;;4995207;28;20439;-64
2022/07/13 09:29:43;;;;;;;4.07;1.55;;;29.20;94.80;;;;;;5012624;28;20042;-64
2022/07/13 09:32:11;;;;;;;4.22;1.40;;;29.40;96.20;;;;;;5014731;28;20046;-64
2022/07/13 09:34:57;;;;;;;2.92;1.58;;;29.60;94.50;;;;;;4982659;28;20042;-65
2022/07/13 09:37:27;;;;;;;3.38;1.58;;;29.60;93.50;;;;;;5016351;28;20482;-65
2022/07/13 09:40:05;;;;;;;3.85;1.70;;;29.50;94.10;;;;;;4998785;28;20076;-65
2022/07/13 09:42:36;;;;;;;3.78;2.17;;;29.50;94.10;;;;;;5016131;28;20128;-65
2022/07/13 09:47:53;;;;;;;;;;;29.40;92.50;;;;;;4999190;28;20101;-65
2022/07/13 09:50:24;;;;;;;6.37;2.33;;;29.40;93.70;;;;;;5014324;28;20411;-65
2022/07/13 09:52:52;;;;;;;4.57;2.22;;;29.30;94.30;;;;;;5016361;28;20423;-65
2022/07/13 09:55:24;;;;;;;4.30;2.22;;;29.40;94.30;;;;;;4998624;28;20108;-63
2022/07/13 09:57:57;;;;;;;2.42;1.88;;;29.50;94.20;;;;;;4982628;28;20400;-65
2022/07/13 10:00:24;;;;;;;4.35;2.15;;;29.60;94.00;;;;;;4982517;28;20116;-65
2022/07/13 10:02:50;;;;;;;4.57;2.10;;;29.60;93.70;;;;;;4997663;28;20492;-65
2022/07/13 10:05:18;;;;;;;3.83;1.60;;;29.60;92.70;;;;;;4997498;28;20050;-65
2022/07/13 10:07:45;;;;;;;2.88;1.55;;;29.70;92.50;;;;;;4997637;28;20038;-65
2022/07/13 10:10:13;;;;;;;5.53;2.25;;;29.90;91.90;;;;;;4997654;28;20052;-62
2022/07/13 10:12:39;;;;;;;3.25;2.15;;;30.00;91.10;;;;;;4997306;28;20085;-64
2022/07/13 10:15:06;;;;;;;3.95;1.85;;;30.00;90.60;;;;;;4997481;28;20177;-71
2022/07/13 10:17:33;;;;;;;2.55;1.52;;;30.20;91.10;;;;;;4981040;28;20042;-71
2022/07/13 10:20:05;;;;;;;3.50;1.85;;;30.40;91.00;;;;;;5014701;28;20045;-71
2022/07/13 10:22:34;;;;;;;4.93;2.00;;;30.50;90.80;;;;;;4995034;28;20777;-70
2022/07/13 10:25:00;;;;;;;2.92;1.95;;;30.50;91.30;;;;;;4997269;28;20041;-70
2022/07/13 10:27:26;;;;;;;4.28;2.13;;;30.40;90.40;;;;;;4996927;28;20046;-70
2022/07/13 10:29:57;;;;;;;3.97;1.60;;;30.40;90.40;;;;;;4997291;28;20057;-71
2022/07/13 10:32:28;;;;;;;3.75;1.70;;;30.40;89.70;;;;;;5014596;28;20038;-69
2022/07/13 10:35:02;;;;;;;2.95;1.60;;;30.30;84.90;;;;;;5014572;28;20730;-70
2022/07/13 10:37:29;;;;;;;2.50;1.25;;;30.20;83.90;;;;;;4997080;28;20485;-73
2022/07/13 10:40:14;;;;;;;3.88;1.30;;;30.30;85.10;;;;;;4996913;28;20041;-71
2022/07/13 10:43:01;;;;;;;3.10;1.83;;;30.40;83.60;;;;;;4996691;28;20103;-71
2022/07/13 10:48:04;;;;;;;3.38;1.50;;;30.50;84.50;;;;;;4997849;28;20070;-70
2022/07/13 10:50:36;;;;;;;2.67;1.85;;;30.50;83.50;;;;;;4995508;28;20569;-70
2022/07/13 10:53:02;;;;;;;2.60;1.80;;;30.60;84.80;;;;;;4980425;28;20050;-70
2022/07/13 10:55:30;;;;;;;7.47;2.13;;;30.60;83.40;;;;;;4997941;28;20050;-71
2022/07/13 10:57:56;;;;;;;3.45;1.88;;;30.60;83.80;;;;;;4997416;28;20271;-69
2022/07/13 11:00:37;;;;;;;5.38;2.42;;;30.60;86.20;;;;;;4980788;28;20034;-71
2022/07/13 11:03:07;;;;;;;3.28;2.13;;;30.60;87.50;;;;;;4964936;28;20058;-70
2022/07/13 11:05:36;;;;;;;3.75;2.47;;;30.50;85.30;;;;;;4998466;28;20054;-70
2022/07/13 11:08:14;;;;;;;4.38;2.55;;;30.40;86.00;;;;;;4964492;28;20073;-70
2022/07/13 11:10:39;;;;;;;3.08;1.98;;;30.50;87.70;;;;;;4980591;28;20493;-70
2022/07/13 11:13:12;;;;;;;4.18;2.72;;;30.50;87.40;;;;;;4998270;28;20129;-70
2022/07/13 11:15:47;;;;;;;5.40;2.25;;;30.40;85.50;;;;;;4980758;28;20042;-70
2022/07/13 11:18:22;;;;;;;6.32;2.42;;;30.40;89.50;;;;;;4998027;28;20492;-70
2022/07/13 11:21:03;;;;;;;3.63;2.60;;;30.40;90.30;;;;;;4962036;28;20105;-69
2022/07/13 11:26:46;;;;;;;4.70;2.92;;;30.50;90.50;;;;;;4980347;28;20496;-71
2022/07/13 11:29:22;;;;;;;3.70;2.38;;;30.50;90.00;;;;;;4998161;28;20042;-70
2022/07/13 11:32:08;;;;;;;4.40;2.25;;;30.40;89.60;;;;;;4979840;28;20583;-69
2022/07/13 11:34:36;;;;;;;3.67;3.05;;;30.30;88.50;;;;;;4996991;28;20109;-70
2022/07/13 11:37:03;;;;;;;3.88;2.10;;;30.20;87.40;;;;;;4980601;28;20094;-70
2022/07/13 11:39:34;;;;;;;4.18;2.00;;;30.20;86.70;;;;;;4997215;28;20125;-69
2022/07/13 11:42:01;;;;;;;2.65;1.90;;;30.20;87.20;;;;;;4997626;28;20038;-70
2022/07/13 11:44:30;;;;;;;5.00;2.13;;;30.10;87.10;;;;;;4988125;28;20061;-72
2022/07/13 11:46:57;;;;;;;3.50;1.75;;;30.20;87.30;;;;;;5017296;28;20085;-70
2022/07/13 11:49:24;;;;;;;3.60;1.67;;;30.20;88.40;;;;;;4999741;28;20034;-71
2022/07/13 11:51:50;;;;;;;4.68;1.85;;;30.20;89.10;;;;;;4997285;28;20067;-70
2022/07/13 11:54:18;;;;;;;4.57;1.80;;;30.20;88.60;;;;;;5016482;28;20025;-71
2022/07/13 11:56:50;;;;;;;4.28;1.77;;;30.20;85.50;;;;;;4982510;28;20034;-71
2022/07/13 11:59:34;;;;;;;2.42;1.70;;;30.20;85.30;;;;;;4999089;28;20129;-69
2022/07/13 12:02:02;;;;;;;4.40;1.63;;;30.10;85.30;;;;;;5016779;28;20050;-69
2022/07/13 12:04:28;;;;;;;3.20;1.70;;;29.70;87.50;;;;;;5016282;28;20076;-70
2022/07/13 12:07:19;;;;;;;3.47;2.03;;;29.30;86.40;;;;;;4999012;28;20056;-70
2022/07/13 12:09:57;;;;;;;2.47;1.40;;;28.90;87.20;;;;;;5016008;28;20046;-70
2022/07/13 12:12:41;;;;;;;5.47;1.80;;;28.50;90.00;;;;;;5016383;28;20092;-69
2022/07/13 12:15:09;;;;;;;4.10;1.92;;;28.30;90.70;;;;;;4998185;28;20042;-70
2022/07/13 12:17:48;;;;;;;2.30;1.60;;;28.10;90.60;;;;;;5016121;28;20060;-70
2022/07/13 12:20:15;;;;;;;;;;;27.90;91.90;;;;;;5016125;28;20621;-70
2022/07/13 12:22:50;;;;;;;3.22;1.80;;;27.90;91.50;;;;;;4997353;28;19921;-70
2022/07/13 12:25:34;;;;;;;3.28;1.70;;;27.60;91.70;;;;;;4998073;28;20038;-70
2022/07/13 12:28:04;;;;;;;3.22;1.70;;;27.40;92.50;;;;;;4998706;28;20030;-70
2022/07/13 12:30:32;;;;;;;4.07;1.80;;;27.20;92.50;;;;;;5015394;28;20088;-71
2022/07/13 12:33:04;;;;;;;1.92;1.67;;;27.10;93.20;;;;;;5016085;28;20073;-72
2022/07/13 12:35:30;;;;;;;2.95;2.00;;;27.00;93.70;;;;;;4982989;28;20104;-71
2022/07/13 12:37:58;;;;;;;5.80;2.53;;;26.90;94.30;;;;;;4998868;28;20500;-71
2022/07/13 12:40:37;;;;;;;3.97;2.72;;;26.90;94.40;;;;;;4997411;28;20053;-68
2022/07/13 12:43:05;;;;;;;4.13;2.35;;;26.90;95.50;;;;;;4996765;28;20045;-68
2022/07/13 12:45:31;;;;;;;7.88;2.83;;;27.00;95.10;;;;;;4979718;28;20046;-67
2022/07/13 12:47:58;;;;;;;4.13;2.60;;;27.00;95.70;;;;;;4994683;28;20097;-66
2022/07/13 12:50:28;;;;;;;5.72;2.55;;;27.10;95.30;;;;;;4992998;28;20045;-67
2022/07/13 12:53:01;;;;;;;4.38;3.03;;;27.20;95.00;;;;;;4977114;28;20053;-67
2022/07/13 12:55:27;;;;;;;5.38;2.58;;;27.00;95.40;;;;;;4994753;28;20523;-70